createdAt,value
2018-11-07T00:00:45.331Z,7.67
2018-11-07T00:03:12.907Z,8.13
2018-11-07T00:05:40.450Z,7.43
2018-11-07T00:08:08.147Z,7.33
2018-11-07T00:10:35.621Z,7.70
2018-11-07T00:13:03.717Z,7.60
2018-11-07T00:15:31.287Z,7.23
2018-11-07T00:17:58.807Z,8.23
2018-11-07T00:20:26.363Z,8.37
2018-11-07T00:22:53.809Z,8.80
2018-11-07T00:25:21.367Z,7.27
2018-11-07T00:27:48.872Z,7.10
2018-11-07T00:30:16.372Z,7.23
2018-11-07T00:32:43.930Z,7.83
2018-11-07T00:35:12.029Z,8.13
2018-11-07T00:37:40.007Z,7.87
2018-11-07T00:40:07.645Z,8.00
2018-11-07T00:42:35.313Z,7.37
2018-11-07T00:45:02.899Z,7.40
2018-11-07T00:47:30.347Z,8.27
2018-11-07T00:49:57.800Z,7.87
2018-11-07T00:52:25.345Z,7.70
2018-11-07T00:54:52.797Z,7.37
2018-11-07T00:57:20.359Z,7.40
2018-11-07T00:59:48.154Z,7.77
2018-11-07T01:02:15.629Z,8.53
2018-11-07T01:04:43.228Z,8.17
2018-11-07T01:07:10.776Z,8.90
2018-11-07T01:09:38.364Z,7.63
2018-11-07T01:12:05.908Z,7.67
2018-11-07T01:14:33.468Z,8.37
2018-11-07T01:17:00.988Z,7.77
2018-11-07T01:19:28.448Z,7.80
2018-11-07T01:21:55.996Z,7.80
2018-11-07T01:24:23.528Z,7.70
2018-11-07T01:26:51.053Z,7.37
2018-11-07T01:29:18.578Z,8.00
2018-11-07T01:31:46.062Z,8.00
2018-11-07T01:34:20.446Z,7.83
2018-11-07T01:36:48.079Z,7.80
2018-11-07T01:39:15.632Z,7.47
2018-11-07T01:41:43.130Z,8.17
2018-11-07T01:44:10.702Z,7.70
2018-11-07T01:46:38.212Z,7.33
2018-11-07T01:49:05.857Z,8.17
2018-11-07T01:51:33.450Z,8.43
2018-11-07T01:54:00.978Z,8.10
2018-11-07T01:56:28.564Z,8.47
2018-11-07T01:58:55.967Z,8.50
2018-11-07T02:01:23.518Z,7.97
2018-11-07T02:03:50.957Z,8.00
2018-11-07T02:06:18.547Z,8.07
2018-11-07T02:08:46.333Z,8.17
2018-11-07T02:11:13.813Z,8.73
2018-11-07T02:13:41.327Z,7.47
2018-11-07T02:16:08.834Z,7.70
2018-11-07T02:18:36.376Z,7.90
2018-11-07T02:21:03.946Z,8.00
2018-11-07T02:23:31.467Z,7.47
2018-11-07T02:25:59.031Z,7.70
2018-11-07T02:28:26.467Z,8.20
2018-11-07T02:30:54.002Z,8.13
2018-11-07T02:33:21.530Z,7.63
2018-11-07T02:35:49.161Z,8.27
2018-11-07T02:38:16.753Z,7.70
2018-11-07T02:40:44.295Z,7.70
2018-11-07T02:43:11.823Z,9.73
2018-11-07T02:45:39.329Z,7.90
2018-11-07T02:48:06.925Z,7.10
2018-11-07T02:50:34.409Z,7.60
2018-11-07T02:53:01.990Z,7.93
2018-11-07T02:55:29.502Z,8.00
2018-11-07T02:57:57.026Z,7.17
2018-11-07T03:00:24.467Z,7.10
2018-11-07T03:02:52.029Z,6.73
2018-11-07T03:05:19.445Z,7.13
2018-11-07T03:07:47.009Z,7.37
2018-11-07T03:10:14.471Z,7.63
2018-11-07T03:12:42.127Z,7.37
2018-11-07T03:15:10.227Z,7.23
2018-11-07T03:17:38.562Z,7.13
2018-11-07T03:20:07.946Z,7.30
2018-11-07T03:22:35.376Z,7.70
2018-11-07T03:25:02.833Z,7.30
2018-11-07T03:27:30.377Z,7.60
2018-11-07T03:29:57.916Z,7.17
2018-11-07T03:32:25.419Z,7.70
2018-11-07T03:34:52.964Z,7.50
2018-11-07T03:37:20.491Z,7.23
2018-11-07T03:39:48.076Z,7.20
2018-11-07T03:42:15.625Z,7.50
2018-11-07T03:44:43.119Z,7.23
2018-11-07T03:47:10.702Z,8.07
2018-11-07T03:49:38.238Z,7.77
2018-11-07T03:52:05.894Z,7.77
2018-11-07T03:54:33.408Z,8.27
2018-11-07T03:57:00.930Z,7.53
2018-11-07T03:59:28.473Z,7.13
2018-11-07T04:01:55.966Z,7.77
2018-11-07T04:04:23.495Z,7.47
2018-11-07T04:06:51.096Z,7.30
2018-11-07T04:09:18.608Z,8.00
2018-11-07T04:11:46.174Z,6.97
2018-11-07T04:14:13.669Z,7.97
2018-11-07T04:16:41.349Z,7.60
2018-11-07T04:19:09.212Z,8.83
2018-11-07T04:21:37.194Z,7.93
2018-11-07T04:24:05.346Z,7.10
2018-11-07T04:26:34.002Z,7.03
2018-11-07T04:29:01.502Z,7.70
2018-11-07T04:31:29.376Z,6.97
2018-11-07T04:33:56.912Z,6.90
2018-11-07T04:36:24.889Z,6.60
2018-11-07T04:38:52.797Z,7.53
2018-11-07T04:41:20.421Z,7.20
2018-11-07T04:43:48.000Z,7.57
2018-11-07T04:46:15.584Z,6.83
2018-11-07T04:48:43.495Z,7.10
2018-11-07T04:51:11.056Z,7.27
2018-11-07T04:53:38.603Z,7.37
2018-11-07T04:56:06.209Z,6.77
2018-11-07T04:58:34.316Z,7.10
2018-11-07T05:01:01.841Z,7.20
2018-11-07T05:03:29.349Z,7.60
2018-11-07T05:05:56.889Z,6.10
2018-11-07T05:08:24.421Z,6.77
2018-11-07T05:10:52.162Z,7.70
2018-11-07T05:13:19.624Z,7.03
2018-11-07T05:15:47.173Z,6.97
2018-11-07T05:18:14.698Z,6.60
2018-11-07T05:20:42.255Z,6.83
2018-11-07T05:23:09.811Z,7.27
2018-11-07T05:25:37.395Z,6.77
2018-11-07T05:28:04.857Z,7.30
2018-11-07T05:30:33.562Z,7.13
2018-11-07T05:33:01.160Z,7.10
2018-11-07T05:35:28.911Z,7.27
2018-11-07T05:37:56.569Z,7.10
2018-11-07T05:40:24.269Z,6.77
2018-11-07T05:42:52.109Z,7.43
2018-11-07T05:45:20.032Z,8.53
2018-11-07T05:47:47.931Z,7.17
2018-11-07T05:50:15.646Z,7.07
2018-11-07T05:52:43.369Z,7.20
2018-11-07T05:55:10.973Z,7.33
2018-11-07T05:57:38.993Z,6.80
2018-11-07T06:00:08.585Z,7.00
2018-11-07T06:02:36.273Z,6.50
2018-11-07T06:05:04.287Z,6.57
2018-11-07T06:07:31.949Z,6.90
2018-11-07T06:09:59.637Z,6.43
2018-11-07T06:12:27.289Z,6.87
2018-11-07T06:14:55.091Z,6.73
2018-11-07T06:17:22.715Z,7.47
2018-11-07T06:19:50.277Z,7.40
2018-11-07T06:22:17.865Z,7.47
2018-11-07T06:24:45.442Z,6.77
2018-11-07T06:27:13.087Z,7.07
2018-11-07T06:29:40.628Z,7.73
2018-11-07T06:32:08.136Z,6.70
2018-11-07T06:34:35.740Z,6.67
2018-11-07T06:37:03.305Z,6.80
2018-11-07T06:39:31.050Z,7.00
2018-11-07T06:41:58.607Z,7.00
2018-11-07T06:44:26.139Z,6.97
2018-11-07T06:46:53.704Z,7.47
2018-11-07T06:49:21.303Z,7.77
2018-11-07T06:51:48.945Z,7.83
2018-11-07T06:54:16.534Z,8.07
2018-11-07T06:56:44.138Z,7.57
2018-11-07T06:59:11.730Z,7.60
2018-11-07T07:01:39.212Z,7.53
2018-11-07T07:04:06.851Z,7.30
2018-11-07T07:06:34.310Z,7.60
2018-11-07T07:09:01.940Z,7.90
2018-11-07T07:11:29.484Z,7.90
2018-11-07T07:13:57.068Z,11.93
2018-11-07T07:16:24.591Z,8.70
2018-11-07T07:18:52.132Z,8.83
2018-11-07T07:21:19.756Z,8.37
2018-11-07T07:23:47.588Z,10.00
2018-11-07T07:26:15.084Z,9.60
2018-11-07T07:28:42.557Z,10.97
2018-11-07T07:31:10.047Z,7.80
2018-11-07T07:33:37.719Z,7.47
2018-11-07T07:36:05.145Z,7.87
2018-11-07T07:38:32.604Z,8.30
2018-11-07T07:41:00.210Z,8.70
2018-11-07T07:43:27.692Z,7.93
2018-11-07T07:45:55.238Z,8.50
2018-11-07T07:48:23.026Z,8.60
2018-11-07T07:50:50.803Z,7.97
2018-11-07T07:53:18.997Z,9.70
2018-11-07T07:55:47.342Z,9.13
2018-11-07T07:58:15.060Z,11.77
2018-11-07T08:00:42.767Z,8.10
2018-11-07T08:03:10.358Z,7.93
2018-11-07T08:05:38.050Z,7.73
2018-11-07T08:08:05.820Z,7.13
2018-11-07T08:10:33.561Z,8.37
2018-11-07T08:13:01.135Z,9.17
2018-11-07T08:15:28.692Z,7.17
2018-11-07T08:17:56.273Z,7.83
2018-11-07T08:20:23.874Z,7.77
2018-11-07T08:22:51.444Z,8.60
2018-11-07T08:25:19.008Z,7.93
2018-11-07T08:27:46.458Z,8.27
2018-11-07T08:30:15.682Z,8.77
2018-11-07T08:32:43.259Z,8.40
2018-11-07T08:35:14.390Z,8.53
2018-11-07T08:37:42.826Z,9.50
2018-11-07T08:40:11.647Z,9.17
2018-11-07T08:42:39.639Z,9.33
2018-11-07T08:45:08.752Z,8.47
2018-11-07T08:47:36.507Z,8.87
2018-11-07T08:50:05.754Z,9.73
2018-11-07T08:52:33.434Z,8.63
2018-11-07T08:55:01.123Z,8.90
2018-11-07T08:57:28.576Z,9.97
2018-11-07T08:59:56.229Z,8.50
2018-11-07T09:02:23.980Z,8.73
2018-11-07T09:04:51.581Z,9.10
2018-11-07T09:07:19.140Z,9.23
2018-11-07T09:09:46.727Z,9.57
2018-11-07T09:12:14.401Z,9.80
2018-11-07T09:14:41.978Z,10.20
2018-11-07T09:17:09.568Z,9.60
2018-11-07T09:19:37.078Z,9.37
2018-11-07T09:22:04.761Z,8.80
2018-11-07T09:24:32.409Z,9.40
2018-11-07T09:26:59.961Z,10.20
2018-11-07T09:29:27.874Z,9.73
2018-11-07T09:31:55.531Z,10.77
2018-11-07T09:34:23.163Z,9.17
2018-11-07T09:36:50.865Z,10.60
2018-11-07T09:39:18.476Z,9.40
2018-11-07T09:41:46.097Z,11.40
2018-11-07T09:44:13.758Z,10.67
2018-11-07T09:46:41.320Z,10.77
2018-11-07T09:49:08.953Z,11.10
2018-11-07T09:51:36.631Z,11.17
2018-11-07T09:54:04.223Z,11.57
2018-11-07T09:56:31.722Z,11.70
2018-11-07T09:58:59.278Z,11.47
2018-11-07T10:01:26.899Z,10.60
2018-11-07T10:03:54.441Z,10.60
2018-11-07T10:06:22.322Z,10.87
2018-11-07T10:08:50.032Z,11.00
2018-11-07T10:11:17.642Z,11.00
2018-11-07T10:13:45.171Z,10.80
2018-11-07T10:16:12.799Z,10.70
2018-11-07T10:18:40.376Z,9.50
2018-11-07T10:21:07.980Z,9.73
2018-11-07T10:23:35.495Z,10.70
2018-11-07T10:26:03.074Z,9.50
2018-11-07T10:28:30.871Z,10.17
2018-11-07T10:30:58.298Z,10.33
2018-11-07T10:33:25.786Z,9.67
2018-11-07T10:35:53.487Z,10.03
2018-11-07T10:38:21.278Z,11.57
2018-11-07T10:40:48.845Z,9.60
2018-11-07T10:43:16.414Z,9.80
2018-11-07T10:45:44.000Z,11.10
2018-11-07T10:48:11.536Z,10.13
2018-11-07T10:50:39.110Z,9.73
2018-11-07T10:53:06.780Z,9.63
2018-11-07T10:55:34.520Z,9.97
2018-11-07T10:58:02.118Z,9.37
2018-11-07T11:00:35.253Z,10.13
2018-11-07T11:03:09.221Z,9.30
2018-11-07T11:05:37.061Z,10.57
2018-11-07T11:08:05.254Z,9.43
2018-11-07T11:10:32.817Z,9.17
2018-11-07T11:13:00.441Z,9.83
2018-11-07T11:15:28.021Z,8.80
2018-11-07T11:17:55.628Z,8.27
2018-11-07T11:20:23.112Z,8.10
2018-11-07T11:22:50.680Z,9.23
2018-11-07T11:25:18.209Z,8.60
2018-11-07T11:27:45.820Z,9.47
2018-11-07T11:30:13.377Z,8.13
2018-11-07T11:32:41.037Z,9.07
2018-11-07T11:35:10.133Z,8.20
2018-11-07T11:37:37.673Z,8.97
2018-11-07T11:40:06.953Z,8.13
2018-11-07T11:42:34.505Z,7.03
2018-11-07T11:45:01.988Z,6.90
2018-11-07T11:47:29.672Z,7.47
2018-11-07T11:49:57.348Z,6.90
2018-11-07T11:52:25.180Z,6.53
2018-11-07T11:54:52.810Z,6.47
2018-11-07T11:57:20.489Z,7.00
2018-11-07T11:59:48.395Z,6.50
2018-11-07T12:02:15.768Z,5.90
2018-11-07T12:04:43.215Z,6.60
2018-11-07T12:07:10.829Z,6.17
2018-11-07T12:09:38.331Z,6.97
2018-11-07T12:12:05.789Z,6.40
2018-11-07T12:14:33.243Z,7.03
2018-11-07T12:17:00.973Z,6.07
2018-11-07T12:19:28.613Z,5.63
2018-11-07T12:21:56.102Z,6.17
2018-11-07T12:24:23.715Z,5.97
2018-11-07T12:26:51.333Z,5.70
2018-11-07T12:29:18.913Z,6.43
2018-11-07T12:31:46.541Z,6.40
2018-11-07T12:34:14.181Z,6.00
2018-11-07T12:36:41.877Z,5.90
2018-11-07T12:39:09.491Z,6.20
2018-11-07T12:41:37.165Z,5.80
2018-11-07T12:44:05.085Z,5.33
2018-11-07T12:46:32.717Z,7.17
2018-11-07T12:49:00.284Z,9.67
2018-11-07T12:51:28.053Z,6.80
2018-11-07T12:53:55.776Z,6.63
2018-11-07T12:56:23.485Z,7.17
2018-11-07T12:58:51.245Z,8.33
2018-11-07T13:01:18.914Z,7.17
2018-11-07T13:03:46.552Z,7.07
2018-11-07T13:06:14.257Z,7.33
2018-11-07T13:08:41.718Z,7.40
2018-11-07T13:11:09.673Z,7.70
2018-11-07T13:13:37.253Z,8.10
2018-11-07T13:16:04.940Z,8.27
2018-11-07T13:18:32.634Z,9.27
2018-11-07T13:21:00.166Z,9.00
2018-11-07T13:23:27.860Z,8.17
2018-11-07T13:25:55.421Z,9.13
2018-11-07T13:28:31.917Z,10.33
2018-11-07T13:30:59.472Z,9.73
2018-11-07T13:33:27.089Z,8.60
2018-11-07T13:35:54.764Z,9.97
2018-11-07T13:38:22.566Z,9.37
2018-11-07T13:40:50.026Z,9.43
2018-11-07T13:43:17.746Z,9.33
2018-11-07T13:45:45.260Z,10.53
2018-11-07T13:48:12.906Z,10.00
2018-11-07T13:50:40.500Z,10.07
2018-11-07T13:53:08.144Z,10.10
2018-11-07T13:55:35.732Z,11.40
2018-11-07T13:58:03.357Z,9.77
2018-11-07T14:00:31.189Z,10.40
2018-11-07T14:02:58.802Z,9.80
2018-11-07T14:05:26.507Z,9.97
2018-11-07T14:07:54.030Z,9.87
2018-11-07T14:10:23.069Z,10.57
2018-11-07T14:12:51.541Z,10.47
2018-11-07T14:15:19.516Z,10.10
2018-11-07T14:17:47.280Z,10.60
2018-11-07T14:20:14.897Z,9.43
2018-11-07T14:22:42.674Z,10.00
2018-11-07T14:25:10.909Z,9.90
2018-11-07T14:27:38.675Z,10.77
2018-11-07T14:30:08.600Z,11.30
2018-11-07T14:32:36.960Z,9.47
2018-11-07T14:35:04.570Z,10.97
2018-11-07T14:37:32.425Z,10.77
2018-11-07T14:40:04.174Z,11.83
2018-11-07T14:42:31.772Z,11.43
2018-11-07T14:44:59.408Z,11.67
2018-11-07T14:47:27.013Z,10.80
2018-11-07T14:49:55.197Z,10.73
2018-11-07T14:52:22.824Z,10.70
2018-11-07T14:54:50.422Z,9.73
2018-11-07T14:57:18.339Z,11.10
2018-11-07T14:59:45.991Z,10.40
2018-11-07T15:02:13.669Z,10.87
2018-11-07T15:04:41.344Z,10.23
2018-11-07T15:07:08.917Z,9.60
2018-11-07T15:09:36.610Z,8.73
2018-11-07T15:12:04.756Z,8.57
2018-11-07T15:14:32.464Z,7.30
2018-11-07T15:17:00.185Z,8.40
2018-11-07T15:19:27.906Z,8.10
2018-11-07T15:21:55.496Z,7.70
2018-11-07T15:24:23.113Z,7.17
2018-11-07T15:26:50.661Z,7.00
2018-11-07T15:29:18.459Z,7.57
2018-11-07T15:31:46.099Z,7.67
2018-11-07T15:34:13.659Z,7.47
2018-11-07T15:36:41.204Z,6.80
2018-11-07T15:39:10.086Z,7.00
2018-11-07T15:41:37.674Z,8.23
2018-11-07T15:44:05.334Z,7.27
2018-11-07T15:46:32.959Z,7.70
2018-11-07T15:49:00.651Z,7.20
2018-11-07T15:51:33.966Z,8.00
2018-11-07T15:54:01.531Z,7.70
2018-11-07T15:56:28.987Z,9.83
2018-11-07T15:58:56.687Z,7.40
2018-11-07T16:01:25.467Z,7.50
2018-11-07T16:03:56.232Z,8.20
2018-11-07T16:06:24.547Z,6.83
2018-11-07T16:08:52.576Z,8.67
2018-11-07T16:11:20.101Z,7.50
2018-11-07T16:13:47.779Z,8.63
2018-11-07T16:16:15.443Z,7.00
2018-11-07T16:18:43.108Z,7.40
2018-11-07T16:21:10.662Z,8.00
2018-11-07T16:23:38.445Z,7.93
2018-11-07T16:26:06.232Z,7.70
2018-11-07T16:28:33.904Z,7.87
2018-11-07T16:31:01.756Z,9.60
2018-11-07T16:33:29.476Z,8.50
2018-11-07T16:35:57.047Z,8.30
2018-11-07T16:38:24.695Z,9.07
2018-11-07T16:40:52.285Z,9.70
2018-11-07T16:43:19.970Z,9.63
2018-11-07T16:45:47.677Z,11.00
2018-11-07T16:48:15.362Z,10.47
2018-11-07T16:50:43.117Z,11.40
2018-11-07T16:53:10.658Z,12.83
2018-11-07T16:55:38.263Z,13.77
2018-11-07T16:58:05.933Z,12.30
2018-11-07T17:00:33.565Z,13.27
2018-11-07T17:03:01.238Z,12.40
2018-11-07T17:05:29.010Z,13.37
2018-11-07T17:07:56.684Z,14.33
2018-11-07T17:10:24.277Z,11.77
2018-11-07T17:12:52.006Z,14.10
2018-11-07T17:15:19.602Z,13.97
2018-11-07T17:17:47.505Z,15.10
2018-11-07T17:20:15.715Z,13.60
2018-11-07T17:22:43.737Z,13.77
2018-11-07T17:25:17.109Z,13.57
2018-11-07T17:27:45.139Z,15.33
2018-11-07T17:30:13.947Z,13.90
2018-11-07T17:32:41.577Z,13.70
2018-11-07T17:35:11.507Z,13.47
2018-11-07T17:37:39.415Z,15.17
2018-11-07T17:40:07.835Z,14.97
2018-11-07T17:42:36.395Z,14.50
2018-11-07T17:45:05.143Z,15.53
2018-11-07T17:47:32.844Z,15.67
2018-11-07T17:50:00.612Z,14.33
2018-11-07T17:52:28.247Z,14.67
2018-11-07T17:54:55.896Z,16.03
2018-11-07T17:57:23.522Z,15.27
2018-11-07T17:59:51.143Z,16.80
2018-11-07T18:02:18.689Z,15.20
2018-11-07T18:04:46.278Z,17.23
2018-11-07T18:07:15.401Z,14.80
2018-11-07T18:09:43.276Z,16.23
2018-11-07T18:12:11.027Z,16.90
2018-11-07T18:14:38.505Z,16.80
2018-11-07T18:17:06.274Z,17.37
2018-11-07T18:19:33.921Z,18.07
2018-11-07T18:22:01.521Z,16.87
2018-11-07T18:24:29.264Z,15.67
2018-11-07T18:26:56.930Z,17.13
2018-11-07T18:29:24.552Z,17.83
2018-11-07T18:31:52.392Z,17.10
2018-11-07T18:34:20.192Z,18.03
2018-11-07T18:36:47.665Z,15.90
2018-11-07T18:39:15.171Z,15.50
2018-11-07T18:41:42.738Z,17.00
2018-11-07T18:44:11.277Z,16.93
2018-11-07T18:46:39.184Z,17.57
2018-11-07T18:49:07.126Z,16.87
2018-11-07T18:51:34.680Z,17.83
2018-11-07T18:54:02.462Z,16.83
2018-11-07T18:56:30.194Z,16.70
2018-11-07T18:58:58.013Z,17.60
2018-11-07T19:01:25.708Z,18.97
2018-11-07T19:03:53.257Z,17.20
2018-11-07T19:06:21.578Z,17.27
2018-11-07T19:08:49.193Z,15.60
2018-11-07T19:11:16.887Z,16.37
2018-11-07T19:13:44.506Z,16.50
2018-11-07T19:16:12.578Z,16.47
2018-11-07T19:18:40.268Z,15.33
2018-11-07T19:21:07.969Z,16.27
2018-11-07T19:23:35.595Z,16.23
2018-11-07T19:26:03.292Z,14.77
2018-11-07T19:28:30.769Z,16.43
2018-11-07T19:30:58.449Z,15.50
2018-11-07T19:33:26.014Z,16.07
2018-11-07T19:35:53.568Z,15.40
2018-11-07T19:38:21.318Z,16.30
2018-11-07T19:40:48.944Z,15.40
2018-11-07T19:43:16.653Z,16.90
2018-11-07T19:45:44.255Z,16.97
2018-11-07T19:48:11.835Z,18.33
2018-11-07T19:50:39.476Z,17.40
2018-11-07T19:53:07.107Z,15.47
2018-11-07T19:55:34.660Z,15.57
2018-11-07T19:58:02.638Z,15.70
2018-11-07T20:00:30.272Z,14.70
2018-11-07T20:02:57.820Z,15.87
2018-11-07T20:05:25.510Z,15.97
2018-11-07T20:07:53.010Z,15.87
2018-11-07T20:10:21.330Z,16.07
2018-11-07T20:12:48.971Z,16.30
2018-11-07T20:15:17.613Z,15.33
2018-11-07T20:17:45.290Z,14.97
2018-11-07T20:20:13.316Z,16.07
2018-11-07T20:22:40.881Z,15.23
2018-11-07T20:25:11.233Z,14.90
2018-11-07T20:27:38.691Z,15.57
2018-11-07T20:30:09.428Z,14.60
2018-11-07T20:32:37.104Z,14.67
2018-11-07T20:35:06.038Z,14.83
2018-11-07T20:37:33.578Z,13.80
2018-11-07T20:40:01.197Z,14.83
2018-11-07T20:42:29.118Z,14.30
2018-11-07T20:44:56.863Z,14.70
2018-11-07T20:47:24.507Z,14.03
2018-11-07T20:49:52.263Z,15.60
2018-11-07T20:52:20.044Z,14.23
2018-11-07T20:54:47.672Z,13.60
2018-11-07T20:57:15.716Z,14.17
2018-11-07T20:59:43.263Z,13.80
2018-11-07T21:02:10.862Z,14.57
2018-11-07T21:04:38.595Z,14.23
2018-11-07T21:07:08.479Z,13.00
2018-11-07T21:09:36.228Z,13.97
2018-11-07T21:12:04.270Z,13.30
2018-11-07T21:14:31.848Z,13.47
2018-11-07T21:30:03.953Z,12.47
2018-11-07T21:32:31.534Z,13.13
2018-11-07T21:34:59.249Z,13.63
2018-11-07T21:37:26.959Z,13.33
2018-11-07T21:39:54.675Z,14.23
2018-11-07T21:42:22.341Z,14.67
2018-11-07T21:44:49.926Z,13.70
2018-11-07T21:47:18.465Z,13.90
2018-11-07T21:49:46.061Z,12.97
2018-11-07T21:52:13.921Z,13.70
2018-11-07T21:54:41.555Z,14.53
2018-11-07T21:57:09.250Z,13.77
2018-11-07T21:59:37.390Z,14.67
2018-11-07T22:02:05.249Z,13.57
2018-11-07T22:04:33.268Z,14.93
2018-11-07T22:07:01.045Z,14.07
2018-11-07T22:09:28.622Z,13.93
2018-11-07T22:11:56.284Z,15.07
2018-11-07T22:14:23.944Z,14.10
2018-11-07T22:16:51.521Z,13.57
2018-11-07T22:19:19.140Z,13.60
2018-11-07T22:21:46.798Z,14.30
2018-11-07T22:24:14.390Z,13.43
2018-11-07T22:26:41.855Z,14.00
2018-11-07T22:29:11.428Z,14.27
2018-11-07T22:31:39.080Z,13.70
2018-11-07T22:34:06.922Z,13.90
2018-11-07T22:36:34.498Z,14.23
2018-11-07T22:39:02.303Z,14.27
2018-11-07T22:41:29.937Z,14.13
2018-11-07T22:43:57.600Z,14.67
2018-11-07T22:46:25.192Z,14.13
2018-11-07T22:48:52.645Z,14.40
2018-11-07T22:51:20.254Z,13.93
2018-11-07T22:53:47.846Z,13.90
2018-11-07T22:56:15.699Z,14.03
2018-11-07T22:58:43.369Z,14.30
2018-11-07T23:01:16.489Z,13.63
2018-11-07T23:03:45.539Z,13.80
2018-11-07T23:06:13.069Z,14.00
2018-11-07T23:08:40.760Z,13.60
2018-11-07T23:11:08.480Z,14.40
2018-11-07T23:13:36.037Z,14.30
2018-11-07T23:16:03.625Z,14.13
2018-11-07T23:18:31.668Z,14.23
2018-11-07T23:20:59.316Z,12.90
2018-11-07T23:23:26.822Z,14.87
2018-11-07T23:25:54.433Z,14.40
2018-11-07T23:28:22.029Z,13.40
2018-11-07T23:30:49.591Z,12.63
2018-11-07T23:33:17.297Z,14.53
2018-11-07T23:35:44.915Z,13.73
2018-11-07T23:38:12.503Z,14.20
2018-11-07T23:40:40.167Z,13.83
2018-11-07T23:43:08.092Z,14.20
2018-11-07T23:45:35.642Z,14.10
2018-11-07T23:48:03.175Z,13.53
2018-11-07T23:50:30.787Z,14.13
2018-11-07T23:52:58.384Z,13.70
2018-11-07T23:55:26.048Z,14.60
2018-11-07T23:57:53.864Z,15.27
